Time;durP1;ratioP1;P1;durP2;ratioP2;P2;SDS_P1;SDS_P2;PMS_P1;PMS_P2;Temp;Humidity;BMP_temperature;BMP_pressure;BME280_temperature;BME280_humidity;BME280_pressure;Samples;Min_cycle;Max_cycle;Signal;HPM_P1;HPM_P2
2024/04/20 00:01:40;;;;;;;1.30;1.05;;;;;;;;;;5419837;26;20366;-78
2024/04/20 00:04:06;;;;;;;1.17;0.90;;;;;;;;;;5419917;26;20808;-78
2024/04/20 00:06:32;;;;;;;1.60;0.90;;;;;;;;;;5419726;26;20343;-78
2024/04/20 00:08:58;;;;;;;1.58;1.10;;;;;;;;;;5419377;26;20390;-78
2024/04/20 00:11:25;;;;;;;0.98;0.80;;;;;;;;;;5417599;26;20336;-78
2024/04/20 00:13:52;;;;;;;0.73;0.68;;;;;;;;;;5419338;26;20335;-78
2024/04/20 00:16:18;;;;;;;0.80;0.80;;;;;;;;;;5419625;26;20323;-78
2024/04/20 00:18:44;;;;;;;0.90;0.70;;;;;;;;;;5420268;26;20375;-78
2024/04/20 00:21:10;;;;;;;1.52;1.00;;;;;;;;;;5419632;26;20331;-78
2024/04/20 00:23:36;;;;;;;0.90;0.90;;;;;;;;;;5419360;26;20398;-78
2024/04/20 00:26:06;;;;;;;0.95;0.73;;;;;;;;;;5419193;26;20829;-78
2024/04/20 00:28:32;;;;;;;1.45;0.80;;;;;;;;;;5419297;26;20379;-78
2024/04/20 00:30:59;;;;;;;0.80;0.80;;;;;;;;;;5417287;26;20892;-78
2024/04/20 00:33:25;;;;;;;0.80;0.70;;;;;;;;;;5418345;26;20339;-78
2024/04/20 00:35:51;;;;;;;0.90;0.90;;;;;;;;;;5419181;26;20388;-78
2024/04/20 00:38:17;;;;;;;0.90;0.70;;;;;;;;;;5419339;26;20335;-78
2024/04/20 00:40:43;;;;;;;0.80;0.80;;;;;;;;;;5420193;26;20358;-78
2024/04/20 00:43:18;;;;;;;1.15;0.90;;;;;;;;;;5417266;26;20368;-78
2024/04/20 00:45:45;;;;;;;0.90;0.80;;;;;;;;;;5418335;26;20806;-78
2024/04/20 00:48:11;;;;;;;0.80;0.80;;;;;;;;;;5418179;26;20347;-78
2024/04/20 00:50:40;;;;;;;0.80;0.80;;;;;;;;;;5418788;26;20426;-78
2024/04/20 00:53:07;;;;;;;1.23;0.85;;;;;;;;;;5418648;26;20336;-78
2024/04/20 00:55:33;;;;;;;1.88;0.80;;;;;;;;;;5418582;26;20417;-78
2024/04/20 00:58:02;;;;;;;1.88;0.80;;;;;;;;;;5418850;26;20454;-78
2024/04/20 01:00:29;;;;;;;1.15;0.80;;;;;;;;;;5417890;26;20930;-78
2024/04/20 01:02:55;;;;;;;1.40;0.93;;;;;;;;;;5418510;26;20340;-78
2024/04/20 01:05:21;;;;;;;0.98;0.90;;;;;;;;;;5418128;26;20402;-78
2024/04/20 01:07:47;;;;;;;1.13;0.90;;;;;;;;;;5418501;26;20343;-78
2024/04/20 01:10:13;;;;;;;1.42;1.10;;;;;;;;;;5417659;26;20335;-78
2024/04/20 01:12:39;;;;;;;1.38;0.93;;;;;;;;;;5418132;26;20368;-78
2024/04/20 01:15:05;;;;;;;1.42;1.15;;;;;;;;;;5417744;26;20347;-78
2024/04/20 01:17:31;;;;;;;2.05;0.98;;;;;;;;;;5417477;26;20373;-78
2024/04/20 01:19:57;;;;;;;1.67;1.02;;;;;;;;;;5418465;26;20347;-78
2024/04/20 01:22:23;;;;;;;3.50;1.40;;;;;;;;;;5418160;26;20340;-78
2024/04/20 01:24:52;;;;;;;1.98;1.08;;;;;;;;;;5419112;26;20335;-78
2024/04/20 01:27:18;;;;;;;3.30;1.67;;;;;;;;;;5418106;26;20415;-78
2024/04/20 01:29:44;;;;;;;3.22;1.48;;;;;;;;;;5418367;26;20381;-78
2024/04/20 01:32:10;;;;;;;2.90;1.27;;;;;;;;;;5418050;26;20347;-78
2024/04/20 01:34:36;;;;;;;2.60;1.60;;;;;;;;;;5417609;26;20803;-78
2024/04/20 01:37:02;;;;;;;2.55;1.52;;;;;;;;;;5418679;26;20335;-78
2024/04/20 01:39:27;;;;;;;2.10;1.48;;;;;;;;;;5418170;26;20391;-78
2024/04/20 01:41:53;;;;;;;2.15;1.17;;;;;;;;;;5417998;26;20364;-78
2024/04/20 01:44:19;;;;;;;2.33;1.13;;;;;;;;;;5417911;26;20340;-78
2024/04/20 01:46:45;;;;;;;3.00;1.10;;;;;;;;;;5417836;26;20335;-78
2024/04/20 01:49:11;;;;;;;1.75;1.17;;;;;;;;;;5417353;26;20391;-78
2024/04/20 01:51:37;;;;;;;3.95;1.27;;;;;;;;;;5416904;26;20331;-78
2024/04/20 01:54:05;;;;;;;3.77;1.50;;;;;;;;;;5417111;26;20351;-78
2024/04/20 01:56:31;;;;;;;3.05;1.63;;;;;;;;;;5417577;26;20376;-78
2024/04/20 01:58:57;;;;;;;5.60;1.65;;;;;;;;;;5416967;26;20379;-78
2024/04/20 02:01:23;;;;;;;2.92;1.48;;;;;;;;;;5416826;26;20780;-78
2024/04/20 02:03:49;;;;;;;4.10;1.73;;;;;;;;;;5416726;26;20344;-78
2024/04/20 02:06:15;;;;;;;2.88;1.50;;;;;;;;;;5416631;26;20370;-78
2024/04/20 02:08:45;;;;;;;3.03;1.50;;;;;;;;;;5416546;26;20343;-78
2024/04/20 02:11:11;;;;;;;3.55;1.33;;;;;;;;;;5416650;26;20342;-78
2024/04/20 02:13:37;;;;;;;4.55;1.67;;;;;;;;;;5417244;26;20335;-78
2024/04/20 02:16:03;;;;;;;3.77;1.47;;;;;;;;;;5416620;26;20973;-78
2024/04/20 02:18:29;;;;;;;4.80;1.60;;;;;;;;;;5416771;26;20335;-78
2024/04/20 02:20:55;;;;;;;6.07;1.70;;;;;;;;;;5416899;26;20453;-78
2024/04/20 02:23:22;;;;;;;3.13;1.40;;;;;;;;;;5416623;26;20379;-78
2024/04/20 02:25:48;;;;;;;5.30;1.80;;;;;;;;;;5416576;26;20420;-78
2024/04/20 02:28:14;;;;;;;5.43;1.60;;;;;;;;;;5415867;26;20324;-78
2024/04/20 02:30:40;;;;;;;3.80;1.70;;;;;;;;;;5416600;26;20421;-78
2024/04/20 02:33:06;;;;;;;3.33;1.60;;;;;;;;;;5416638;26;20323;-78
2024/04/20 02:35:37;;;;;;;4.65;1.50;;;;;;;;;;5415305;26;20416;-78
2024/04/20 02:38:03;;;;;;;4.50;1.57;;;;;;;;;;5415311;26;20867;-78
2024/04/20 02:40:29;;;;;;;4.65;1.80;;;;;;;;;;5415121;26;20363;-78
2024/04/20 02:42:55;;;;;;;2.38;1.40;;;;;;;;;;5415760;26;20331;-78
2024/04/20 02:45:22;;;;;;;3.13;1.45;;;;;;;;;;5415740;26;20863;-78
2024/04/20 02:47:48;;;;;;;3.10;1.50;;;;;;;;;;5415502;26;21296;-78
2024/04/20 02:50:14;;;;;;;3.28;1.48;;;;;;;;;;5415503;26;20340;-78
2024/04/20 02:52:40;;;;;;;4.07;1.60;;;;;;;;;;5415814;26;20332;-78
2024/04/20 02:55:06;;;;;;;3.83;1.73;;;;;;;;;;5415782;26;20328;-78
2024/04/20 02:57:32;;;;;;;6.03;1.83;;;;;;;;;;5415664;26;20324;-78
2024/04/20 02:59:58;;;;;;;4.25;1.90;;;;;;;;;;5415239;26;20335;-78
2024/04/20 03:02:24;;;;;;;3.58;2.10;;;;;;;;;;5415077;26;20765;-78
2024/04/20 03:04:50;;;;;;;4.82;2.28;;;;;;;;;;5414650;26;20431;-78
2024/04/20 03:07:16;;;;;;;4.68;2.35;;;;;;;;;;5414063;26;20435;-78
2024/04/20 03:09:42;;;;;;;3.75;2.47;;;;;;;;;;5414762;26;20387;-78
2024/04/20 03:12:08;;;;;;;4.77;2.10;;;;;;;;;;5414731;26;20481;-78
2024/04/20 03:14:34;;;;;;;3.80;1.98;;;;;;;;;;5414833;26;20383;-78
2024/04/20 03:17:00;;;;;;;3.13;1.80;;;;;;;;;;5415050;26;20376;-78
2024/04/20 03:19:25;;;;;;;4.13;2.10;;;;;;;;;;5414680;26;20363;-78
2024/04/20 03:21:52;;;;;;;4.35;2.00;;;;;;;;;;5414553;26;20440;-78
2024/04/20 03:24:18;;;;;;;2.78;1.90;;;;;;;;;;5414763;26;20336;-78
2024/04/20 03:26:44;;;;;;;3.97;1.88;;;;;;;;;;5414617;26;20383;-78
2024/04/20 03:29:10;;;;;;;4.30;2.00;;;;;;;;;;5414467;26;20410;-78
2024/04/20 03:31:36;;;;;;;4.35;2.00;;;;;;;;;;5415095;26;20343;-78
2024/04/20 03:34:02;;;;;;;4.32;1.88;;;;;;;;;;5417590;26;20437;-78
2024/04/20 03:36:27;;;;;;;5.07;2.10;;;;;;;;;;5417690;26;20374;-79
2024/04/20 03:38:53;;;;;;;3.42;1.80;;;;;;;;;;5416906;26;20433;-78
2024/04/20 03:41:20;;;;;;;3.35;1.80;;;;;;;;;;5416868;26;20344;-78
2024/04/20 03:43:45;;;;;;;2.83;1.60;;;;;;;;;;5417390;26;20876;-78
2024/04/20 03:46:12;;;;;;;4.22;1.90;;;;;;;;;;5416737;26;20335;-79
2024/04/20 03:48:38;;;;;;;3.15;1.60;;;;;;;;;;5417566;26;20708;-78
2024/04/20 03:51:04;;;;;;;4.78;1.70;;;;;;;;;;5417279;26;20351;-78
2024/04/20 03:53:30;;;;;;;2.70;1.50;;;;;;;;;;5417710;26;20386;-78
2024/04/20 03:55:56;;;;;;;2.47;1.20;;;;;;;;;;5417586;26;20371;-79
2024/04/20 03:58:22;;;;;;;4.53;1.73;;;;;;;;;;5416860;26;20469;-79
2024/04/20 04:00:48;;;;;;;4.35;1.67;;;;;;;;;;5416860;26;20347;-79
2024/04/20 04:03:26;;;;;;;3.15;1.70;;;;;;;;;;5420356;26;20382;-79
2024/04/20 04:05:52;;;;;;;4.20;1.55;;;;;;;;;;5419524;26;20375;-78
2024/04/20 04:08:18;;;;;;;3.90;1.80;;;;;;;;;;5418580;26;20366;-79
2024/04/20 04:10:47;;;;;;;4.05;1.92;;;;;;;;;;5418714;26;21191;-78
2024/04/20 04:13:14;;;;;;;4.13;1.80;;;;;;;;;;5416763;26;20744;-78
2024/04/20 04:15:40;;;;;;;3.75;1.50;;;;;;;;;;5415887;26;20373;-78
2024/04/20 04:18:06;;;;;;;3.40;1.65;;;;;;;;;;5416944;26;20327;-79
2024/04/20 04:20:34;;;;;;;4.05;1.30;;;;;;;;;;5419333;26;20364;-78
2024/04/20 04:23:03;;;;;;;3.20;1.95;;;;;;;;;;5419262;26;20335;-78
2024/04/20 04:25:32;;;;;;;2.35;1.30;;;;;;;;;;5419416;26;20355;-78
2024/04/20 04:27:59;;;;;;;2.53;1.45;;;;;;;;;;5418965;26;20455;-78
2024/04/20 04:30:25;;;;;;;2.40;1.38;;;;;;;;;;5419434;26;20420;-78
2024/04/20 04:32:51;;;;;;;2.67;1.50;;;;;;;;;;5419721;26;20369;-78
2024/04/20 04:35:17;;;;;;;2.33;1.13;;;;;;;;;;5418978;26;20344;-78
2024/04/20 04:37:43;;;;;;;3.47;1.63;;;;;;;;;;5419317;26;20351;-78
2024/04/20 04:40:09;;;;;;;3.00;1.50;;;;;;;;;;5419928;26;20460;-78
2024/04/20 04:42:35;;;;;;;3.70;1.67;;;;;;;;;;5420669;26;20379;-78
2024/04/20 04:45:03;;;;;;;3.63;1.50;;;;;;;;;;5418654;26;20462;-78
2024/04/20 04:47:29;;;;;;;2.53;1.50;;;;;;;;;;5419597;26;20375;-78
2024/04/20 04:49:55;;;;;;;2.17;1.40;;;;;;;;;;5419766;26;20339;-78
2024/04/20 04:52:21;;;;;;;1.98;1.20;;;;;;;;;;5419312;26;20361;-78
2024/04/20 04:54:47;;;;;;;1.80;1.50;;;;;;;;;;5418836;26;20361;-78
2024/04/20 04:57:13;;;;;;;3.03;1.60;;;;;;;;;;5418603;26;20331;-78
2024/04/20 04:59:39;;;;;;;2.83;1.60;;;;;;;;;;5418815;26;20415;-78
2024/04/20 05:02:05;;;;;;;3.13;1.83;;;;;;;;;;5419054;26;20428;-78
2024/04/20 05:04:31;;;;;;;4.03;1.80;;;;;;;;;;5418759;26;20336;-79
2024/04/20 05:06:58;;;;;;;2.38;1.70;;;;;;;;;;5419411;26;20739;-78
2024/04/20 05:09:24;;;;;;;3.03;1.73;;;;;;;;;;5419081;26;20343;-78
2024/04/20 05:11:50;;;;;;;4.45;1.98;;;;;;;;;;5419109;26;20867;-78
2024/04/20 05:14:16;;;;;;;3.95;1.80;;;;;;;;;;5419391;26;20339;-78
2024/04/20 05:16:42;;;;;;;3.38;1.70;;;;;;;;;;5419271;26;20416;-78
2024/04/20 05:19:09;;;;;;;2.30;1.40;;;;;;;;;;5419536;26;20328;-78
2024/04/20 05:21:35;;;;;;;2.70;1.35;;;;;;;;;;5388357;26;20383;-78
2024/04/20 05:24:01;;;;;;;2.17;1.40;;;;;;;;;;5420835;26;20722;-78
2024/04/20 05:26:28;;;;;;;3.90;1.60;;;;;;;;;;5420712;26;20331;-78
2024/04/20 05:28:54;;;;;;;4.60;1.60;;;;;;;;;;5417655;26;20332;-78
2024/04/20 05:31:20;;;;;;;3.42;1.73;;;;;;;;;;5418321;26;20373;-78
2024/04/20 05:33:46;;;;;;;2.90;1.60;;;;;;;;;;5420241;26;20324;-78
2024/04/20 05:36:12;;;;;;;2.10;1.23;;;;;;;;;;5419969;26;20371;-78
2024/04/20 05:38:39;;;;;;;3.60;1.73;;;;;;;;;;5420636;26;20347;-78
2024/04/20 05:41:05;;;;;;;4.00;1.65;;;;;;;;;;5419597;26;20665;-78
2024/04/20 05:43:31;;;;;;;2.63;1.60;;;;;;;;;;5419564;26;20327;-78
2024/04/20 05:45:57;;;;;;;3.30;1.85;;;;;;;;;;5387714;26;20412;-78
2024/04/20 05:48:23;;;;;;;2.20;1.42;;;;;;;;;;5418518;26;20450;-79
2024/04/20 05:50:49;;;;;;;3.45;1.80;;;;;;;;;;5419988;26;20351;-78
2024/04/20 05:53:15;;;;;;;2.72;1.70;;;;;;;;;;5418277;26;20368;-78
2024/04/20 05:55:41;;;;;;;3.47;1.70;;;;;;;;;;5416898;26;20396;-78
2024/04/20 05:58:07;;;;;;;3.70;1.60;;;;;;;;;;5416852;26;20428;-78
2024/04/20 06:00:33;;;;;;;3.95;2.30;;;;;;;;;;5415711;26;20343;-78
2024/04/20 06:03:00;;;;;;;3.10;1.50;;;;;;;;;;5416021;26;20669;-78
2024/04/20 06:05:25;;;;;;;3.10;1.50;;;;;;;;;;5416410;26;20788;-78
2024/04/20 06:07:51;;;;;;;2.85;1.50;;;;;;;;;;5416248;26;20331;-78
2024/04/20 06:10:17;;;;;;;2.17;1.38;;;;;;;;;;5416487;26;20335;-78
2024/04/20 06:12:43;;;;;;;4.10;1.52;;;;;;;;;;5413653;26;20331;-78
2024/04/20 06:15:09;;;;;;;3.50;1.67;;;;;;;;;;5416773;26;20734;-78
2024/04/20 06:17:35;;;;;;;4.10;2.20;;;;;;;;;;5415965;26;20327;-78
2024/04/20 06:20:01;;;;;;;2.80;2.00;;;;;;;;;;5415716;26;20355;-78
2024/04/20 06:22:27;;;;;;;4.85;2.00;;;;;;;;;;5414596;26;20339;-78
2024/04/20 06:24:54;;;;;;;2.17;1.80;;;;;;;;;;5415677;26;20331;-77
2024/04/20 06:27:23;;;;;;;3.25;1.60;;;;;;;;;;5416021;26;20938;-78
2024/04/20 06:29:50;;;;;;;3.60;1.73;;;;;;;;;;5415658;26;20375;-77
2024/04/20 06:32:16;;;;;;;3.38;1.90;;;;;;;;;;5415706;26;20375;-78
2024/04/20 06:34:43;;;;;;;2.33;1.80;;;;;;;;;;5415590;26;20772;-78
2024/04/20 06:37:14;;;;;;;2.90;2.10;;;;;;;;;;5415223;26;20332;-78
2024/04/20 06:39:40;;;;;;;4.03;2.00;;;;;;;;;;5416058;26;20396;-77
2024/04/20 06:42:06;;;;;;;3.03;2.35;;;;;;;;;;5414918;26;20346;-78
2024/04/20 06:44:32;;;;;;;3.10;2.00;;;;;;;;;;5415529;26;20899;-78
2024/04/20 06:46:58;;;;;;;3.27;2.43;;;;;;;;;;5415467;26;20339;-78
2024/04/20 06:49:24;;;;;;;4.20;2.47;;;;;;;;;;5415201;26;20347;-78
2024/04/20 06:51:50;;;;;;;2.85;2.05;;;;;;;;;;5415540;26;20380;-78
2024/04/20 06:54:16;;;;;;;6.82;2.40;;;;;;;;;;5415223;26;20391;-78
2024/04/20 06:56:42;;;;;;;3.10;2.10;;;;;;;;;;5415594;26;20335;-78
2024/04/20 06:59:09;;;;;;;2.90;2.37;;;;;;;;;;5416149;26;20328;-79
2024/04/20 07:01:35;;;;;;;3.30;1.90;;;;;;;;;;5415224;26;20792;-78
2024/04/20 07:04:01;;;;;;;4.13;1.90;;;;;;;;;;5414667;26;20669;-78
2024/04/20 07:06:27;;;;;;;3.00;2.10;;;;;;;;;;5415734;26;20425;-78
2024/04/20 07:08:53;;;;;;;3.47;1.88;;;;;;;;;;5416409;26;20319;-78
2024/04/20 07:11:19;;;;;;;2.47;2.10;;;;;;;;;;5416427;26;20359;-79
2024/04/20 07:13:46;;;;;;;4.43;2.20;;;;;;;;;;5416627;26;20320;-78
2024/04/20 07:16:12;;;;;;;3.08;1.60;;;;;;;;;;5416665;26;20331;-79
2024/04/20 07:18:39;;;;;;;3.28;2.03;;;;;;;;;;5416456;26;20331;-79
2024/04/20 07:21:06;;;;;;;2.83;1.70;;;;;;;;;;5416291;26;20345;-78
2024/04/20 07:23:32;;;;;;;2.10;1.70;;;;;;;;;;5417138;26;20698;-78
2024/04/20 07:25:58;;;;;;;3.20;1.85;;;;;;;;;;5416028;26;20331;-78
2024/04/20 07:28:24;;;;;;;2.50;1.70;;;;;;;;;;5417990;26;20323;-78
2024/04/20 07:30:50;;;;;;;2.78;1.75;;;;;;;;;;5417635;26;20335;-78
2024/04/20 07:33:16;;;;;;;2.58;1.77;;;;;;;;;;5417234;26;20332;-78
2024/04/20 07:35:42;;;;;;;2.65;1.45;;;;;;;;;;5416256;26;20327;-78
2024/04/20 07:38:08;;;;;;;3.03;2.60;;;;;;;;;;5415318;26;20372;-78
2024/04/20 07:40:35;;;;;;;4.53;2.67;;;;;;;;;;5414609;26;20815;-78
2024/04/20 07:43:01;;;;;;;3.13;1.98;;;;;;;;;;5414831;26;20315;-78
2024/04/20 07:45:28;;;;;;;2.33;1.60;;;;;;;;;;5413430;26;20427;-79
2024/04/20 07:47:54;;;;;;;2.50;2.10;;;;;;;;;;5382501;26;20332;-78
2024/04/20 07:50:19;;;;;;;1.40;1.30;;;;;;;;;;5414068;26;20693;-79
2024/04/20 07:52:47;;;;;;;2.88;1.17;;;;;;;;;;5415666;26;20327;-78
2024/04/20 07:55:13;;;;;;;1.47;1.17;;;;;;;;;;5417911;26;20324;-78
2024/04/20 07:57:39;;;;;;;3.03;1.70;;;;;;;;;;5417912;26;20430;-78
2024/04/20 08:00:05;;;;;;;1.38;1.10;;;;;;;;;;5418410;26;20367;-79
2024/04/20 08:02:32;;;;;;;3.97;2.33;;;;;;;;;;5418197;26;20323;-79
2024/04/20 08:04:58;;;;;;;2.08;1.83;;;;;;;;;;5418948;26;20335;-80
2024/04/20 08:07:24;;;;;;;2.80;1.40;;;;;;;;;;5422395;26;20323;-80
2024/04/20 08:09:50;;;;;;;1.63;1.30;;;;;;;;;;5424464;26;20335;-79
2024/04/20 08:12:16;;;;;;;1.35;0.90;;;;;;;;;;5424721;26;20730;-80
2024/04/20 08:14:42;;;;;;;1.90;1.20;;;;;;;;;;5425572;26;20378;-80
2024/04/20 08:17:08;;;;;;;2.88;1.50;;;;;;;;;;5424102;26;20373;-79
2024/04/20 08:19:34;;;;;;;1.58;1.10;;;;;;;;;;5425082;26;20375;-78
2024/04/20 08:22:00;;;;;;;1.83;1.20;;;;;;;;;;5424079;26;20327;-79
2024/04/20 08:24:26;;;;;;;3.10;1.25;;;;;;;;;;5425250;26;20328;-80
2024/04/20 08:26:52;;;;;;;3.92;1.27;;;;;;;;;;5424206;26;20724;-80
2024/04/20 08:29:18;;;;;;;2.00;1.30;;;;;;;;;;5423431;26;20322;-80
2024/04/20 08:31:44;;;;;;;2.15;1.38;;;;;;;;;;5424606;26;20327;-79
2024/04/20 08:34:10;;;;;;;2.17;1.30;;;;;;;;;;5423455;26;21120;-79
2024/04/20 08:36:36;;;;;;;1.67;1.00;;;;;;;;;;5423857;26;20351;-79
2024/04/20 08:39:02;;;;;;;1.47;1.13;;;;;;;;;;5424137;26;20984;-79
2024/04/20 08:41:31;;;;;;;1.83;1.05;;;;;;;;;;5424570;26;20343;-79
2024/04/20 08:44:00;;;;;;;1.73;1.10;;;;;;;;;;5424924;26;20403;-80
2024/04/20 08:46:27;;;;;;;2.08;1.35;;;;;;;;;;5424222;26;20797;-79
2024/04/20 08:48:54;;;;;;;2.22;1.38;;;;;;;;;;5424408;26;20343;-79
2024/04/20 08:51:21;;;;;;;1.85;1.33;;;;;;;;;;5424650;26;20434;-79
2024/04/20 08:53:48;;;;;;;1.80;1.40;;;;;;;;;;5424406;26;20327;-79
2024/04/20 08:56:14;;;;;;;2.90;1.50;;;;;;;;;;5424615;26;20323;-79
2024/04/20 08:58:42;;;;;;;2.73;1.97;;;;;;;;;;5423808;26;20728;-79
2024/04/20 09:01:11;;;;;;;0.88;0.88;;;;;;;;;;5424728;26;20336;-79
2024/04/20 09:03:37;;;;;;;0.90;0.80;;;;;;;;;;5424212;26;20407;-79
2024/04/20 09:06:04;;;;;;;2.60;1.00;;;;;;;;;;5424560;26;20375;-79
2024/04/20 09:08:31;;;;;;;1.33;0.60;;;;;;;;;;5423580;26;20379;-84
2024/04/20 09:10:57;;;;;;;1.00;0.70;;;;;;;;;;5424072;26;20333;-79
2024/04/20 09:13:24;;;;;;;1.30;0.98;;;;;;;;;;5425535;26;20327;-79
2024/04/20 09:15:49;;;;;;;1.15;0.80;;;;;;;;;;5425504;26;20726;-80
2024/04/20 09:18:19;;;;;;;0.82;0.73;;;;;;;;;;5426861;26;20331;-80
2024/04/20 09:20:47;;;;;;;0.70;0.70;;;;;;;;;;5425071;26;20340;-80
2024/04/20 09:23:13;;;;;;;0.98;0.77;;;;;;;;;;5426840;26;20372;-80
2024/04/20 09:25:39;;;;;;;0.82;0.70;;;;;;;;;;5426067;26;20336;-80
2024/04/20 09:28:09;;;;;;;1.23;0.85;;;;;;;;;;5426481;26;20413;-80
2024/04/20 09:30:35;;;;;;;1.10;0.75;;;;;;;;;;5427037;26;20421;-79
2024/04/20 09:33:01;;;;;;;0.77;0.60;;;;;;;;;;5425714;26;20375;-80
2024/04/20 09:35:27;;;;;;;1.17;0.80;;;;;;;;;;5392716;26;20328;-80
2024/04/20 09:37:53;;;;;;;0.55;0.50;;;;;;;;;;5423824;26;20376;-80
2024/04/20 09:40:20;;;;;;;0.90;0.70;;;;;;;;;;5421684;26;20362;-80
2024/04/20 09:42:46;;;;;;;1.63;0.70;;;;;;;;;;5424188;26;20364;-80
2024/04/20 09:45:12;;;;;;;2.50;0.80;;;;;;;;;;5424365;26;20727;-80
2024/04/20 09:47:39;;;;;;;1.15;0.73;;;;;;;;;;5423748;26;20343;-80
2024/04/20 09:50:15;;;;;;;1.65;0.80;;;;;;;;;;5425215;26;20343;-80
2024/04/20 09:52:53;;;;;;;0.80;0.80;;;;;;;;;;5426563;26;20328;-80
2024/04/20 09:55:32;;;;;;;1.10;1.00;;;;;;;;;;5424898;26;20860;-80
2024/04/20 09:58:00;;;;;;;1.63;1.40;;;;;;;;;;5422486;26;20331;-80
2024/04/20 10:00:26;;;;;;;1.30;1.00;;;;;;;;;;5423506;26;20331;-80
2024/04/20 10:02:53;;;;;;;1.15;1.05;;;;;;;;;;5423469;26;20343;-80
2024/04/20 10:05:19;;;;;;;0.80;0.80;;;;;;;;;;5423087;26;20336;-80
2024/04/20 10:07:46;;;;;;;1.02;0.70;;;;;;;;;;5422041;26;20339;-79
2024/04/20 10:10:12;;;;;;;2.07;1.30;;;;;;;;;;5422394;26;20335;-79
2024/04/20 10:12:41;;;;;;;1.73;1.20;;;;;;;;;;5421552;26;20923;-79
2024/04/20 10:15:07;;;;;;;1.40;1.30;;;;;;;;;;5421898;26;20468;-79
2024/04/20 10:17:33;;;;;;;1.95;1.15;;;;;;;;;;5423668;26;20407;-79
2024/04/20 10:20:00;;;;;;;1.63;1.30;;;;;;;;;;5422919;26;20383;-79
2024/04/20 10:22:26;;;;;;;2.05;1.45;;;;;;;;;;5419395;26;20351;-79
2024/04/20 10:24:52;;;;;;;2.58;1.27;;;;;;;;;;5421376;26;20362;-79
2024/04/20 10:27:30;;;;;;;2.25;1.40;;;;;;;;;;5418672;26;20336;-79
2024/04/20 10:30:07;;;;;;;1.35;1.10;;;;;;;;;;5421492;26;20348;-79
2024/04/20 10:32:33;;;;;;;1.40;1.00;;;;;;;;;;5422008;26;20413;-79
2024/04/20 10:35:06;;;;;;;1.67;1.15;;;;;;;;;;5422656;26;20344;-79
2024/04/20 10:37:32;;;;;;;1.50;1.40;;;;;;;;;;5422506;26;20343;-79
2024/04/20 10:40:11;;;;;;;2.07;1.43;;;;;;;;;;5422321;26;20487;-79
2024/04/20 10:42:37;;;;;;;2.72;1.40;;;;;;;;;;5422847;26;20340;-80
2024/04/20 10:45:10;;;;;;;2.15;1.30;;;;;;;;;;5422335;26;21658;-79
2024/04/20 10:47:36;;;;;;;2.08;1.40;;;;;;;;;;5423209;26;20781;-79
2024/04/20 10:50:02;;;;;;;1.27;1.10;;;;;;;;;;5421903;26;20343;-79
2024/04/20 10:52:28;;;;;;;1.33;0.85;;;;;;;;;;5422141;26;20328;-79
2024/04/20 10:54:54;;;;;;;1.55;0.90;;;;;;;;;;5420593;26;20320;-80
2024/04/20 10:57:22;;;;;;;1.88;0.90;;;;;;;;;;5421683;26;20335;-80
2024/04/20 10:59:48;;;;;;;2.55;1.35;;;;;;;;;;5420192;26;20375;-79
2024/04/20 11:02:14;;;;;;;1.70;1.60;;;;;;;;;;5420886;26;20689;-80
2024/04/20 11:04:41;;;;;;;1.60;1.30;;;;;;;;;;5420364;26;20697;-79
2024/04/20 11:07:07;;;;;;;1.30;1.10;;;;;;;;;;5420527;26;20332;-79
2024/04/20 11:09:34;;;;;;;1.00;0.90;;;;;;;;;;5420201;26;20339;-79
2024/04/20 11:12:00;;;;;;;1.20;0.70;;;;;;;;;;5420032;26;20323;-80
2024/04/20 11:14:27;;;;;;;0.90;0.80;;;;;;;;;;5420467;26;20462;-79
2024/04/20 11:16:53;;;;;;;1.90;0.70;;;;;;;;;;5419931;26;20422;-79
2024/04/20 11:19:20;;;;;;;0.65;0.63;;;;;;;;;;5419567;26;20331;-79
2024/04/20 11:21:47;;;;;;;1.25;0.82;;;;;;;;;;5418877;26;21157;-80
2024/04/20 11:24:13;;;;;;;2.80;0.93;;;;;;;;;;5419286;26;20791;-80
2024/04/20 11:26:39;;;;;;;1.17;1.07;;;;;;;;;;5420408;26;20375;-79
2024/04/20 11:29:05;;;;;;;0.80;0.80;;;;;;;;;;5423573;26;20331;-80
2024/04/20 11:31:31;;;;;;;1.00;0.90;;;;;;;;;;5422632;26;20335;-80
2024/04/20 11:33:57;;;;;;;1.10;0.65;;;;;;;;;;5423039;26;20407;-80
2024/04/20 11:36:24;;;;;;;0.85;0.80;;;;;;;;;;5423267;26;20808;-80
2024/04/20 11:38:50;;;;;;;1.48;0.80;;;;;;;;;;5423449;26;20384;-80
2024/04/20 11:41:24;;;;;;;0.80;0.70;;;;;;;;;;5423251;26;20335;-81
2024/04/20 11:43:50;;;;;;;1.70;0.70;;;;;;;;;;5422995;26;20404;-80
2024/04/20 11:46:16;;;;;;;0.60;0.60;;;;;;;;;;5422816;26;20754;-80
2024/04/20 11:48:43;;;;;;;0.70;0.70;;;;;;;;;;5422918;26;20327;-81
2024/04/20 11:54:21;;;;;;;2.20;0.90;;;;;;;;;;5421834;26;20394;-79
2024/04/20 11:56:48;;;;;;;0.95;0.80;;;;;;;;;;5422007;26;20360;-80
2024/04/20 11:59:14;;;;;;;2.17;1.15;;;;;;;;;;5422136;26;20379;-80
2024/04/20 12:01:41;;;;;;;2.20;1.23;;;;;;;;;;5421590;26;20323;-80
2024/04/20 12:04:10;;;;;;;1.90;1.23;;;;;;;;;;5421934;26;20323;-80
2024/04/20 12:06:36;;;;;;;1.75;1.00;;;;;;;;;;5422318;26;20320;-80
2024/04/20 12:09:02;;;;;;;1.23;1.00;;;;;;;;;;5390736;26;20354;-80
2024/04/20 12:11:28;;;;;;;1.40;0.90;;;;;;;;;;5421964;26;20438;-81
2024/04/20 12:13:54;;;;;;;1.30;0.80;;;;;;;;;;5421974;26;20370;-80
2024/04/20 12:16:21;;;;;;;1.90;0.80;;;;;;;;;;5390750;26;20320;-81
2024/04/20 12:18:47;;;;;;;1.83;0.90;;;;;;;;;;5421053;26;20411;-80
2024/04/20 12:21:15;;;;;;;0.80;0.60;;;;;;;;;;5420600;26;20429;-80
2024/04/20 12:23:41;;;;;;;0.87;0.40;;;;;;;;;;5421217;26;20840;-80
2024/04/20 12:26:07;;;;;;;1.30;0.70;;;;;;;;;;5421536;26;20327;-81
2024/04/20 12:28:33;;;;;;;0.93;0.60;;;;;;;;;;5421129;26;20417;-81
2024/04/20 12:31:04;;;;;;;2.22;0.70;;;;;;;;;;5420613;26;20332;-81
2024/04/20 12:33:30;;;;;;;1.35;0.65;;;;;;;;;;5421057;26;20327;-81
2024/04/20 12:35:56;;;;;;;0.90;0.45;;;;;;;;;;5420698;26;20340;-81
2024/04/20 12:38:28;;;;;;;0.80;0.60;;;;;;;;;;5420179;26;20336;-80
2024/04/20 12:40:55;;;;;;;1.02;0.75;;;;;;;;;;5419668;26;20331;-80
2024/04/20 12:43:24;;;;;;;1.20;0.60;;;;;;;;;;5419863;26;20389;-80
2024/04/20 12:45:50;;;;;;;2.28;1.58;;;;;;;;;;5419998;26;20426;-80
2024/04/20 12:48:16;;;;;;;1.95;0.60;;;;;;;;;;5420126;26;20340;-80
2024/04/20 12:50:42;;;;;;;0.70;0.50;;;;;;;;;;5420305;26;20327;-80
2024/04/20 12:53:08;;;;;;;0.90;0.70;;;;;;;;;;5420143;26;20874;-80
2024/04/20 12:55:34;;;;;;;1.38;0.75;;;;;;;;;;5419946;26;20365;-80
2024/04/20 12:58:00;;;;;;;1.58;0.80;;;;;;;;;;5420404;26;20808;-80
2024/04/20 13:00:26;;;;;;;1.67;0.80;;;;;;;;;;5419770;26;20327;-80
2024/04/20 13:02:52;;;;;;;1.08;0.80;;;;;;;;;;5420701;26;20417;-83
2024/04/20 13:05:18;;;;;;;1.23;0.82;;;;;;;;;;5420617;26;20430;-79
2024/04/20 13:07:44;;;;;;;1.00;0.70;;;;;;;;;;5419278;26;20327;-79
2024/04/20 13:10:10;;;;;;;2.10;0.73;;;;;;;;;;5419100;26;20820;-79
2024/04/20 13:12:36;;;;;;;0.75;0.60;;;;;;;;;;5419863;26;20430;-78
2024/04/20 13:15:03;;;;;;;1.40;0.60;;;;;;;;;;5420915;26;20540;-79
2024/04/20 13:17:33;;;;;;;0.83;0.60;;;;;;;;;;5421433;26;20724;-80
2024/04/20 13:20:02;;;;;;;1.10;0.80;;;;;;;;;;5421680;26;20403;-79
2024/04/20 13:22:29;;;;;;;1.13;0.70;;;;;;;;;;5421544;26;20368;-80
2024/04/20 13:24:55;;;;;;;0.77;0.50;;;;;;;;;;5422644;26;20808;-80
2024/04/20 13:27:22;;;;;;;0.90;0.70;;;;;;;;;;5421425;26;20434;-79
2024/04/20 13:29:48;;;;;;;1.30;0.60;;;;;;;;;;5420936;26;20358;-79
2024/04/20 13:32:15;;;;;;;2.07;0.90;;;;;;;;;;5421311;26;20368;-79
2024/04/20 13:34:41;;;;;;;0.85;0.60;;;;;;;;;;5422870;26;20352;-80
2024/04/20 13:37:08;;;;;;;1.65;0.70;;;;;;;;;;5422494;26;20824;-79
2024/04/20 13:39:34;;;;;;;1.42;0.60;;;;;;;;;;5421566;26;20328;-79
2024/04/20 13:42:00;;;;;;;0.80;0.63;;;;;;;;;;5421811;26;20332;-79
2024/04/20 13:44:26;;;;;;;1.35;0.55;;;;;;;;;;5421876;26;20377;-79
2024/04/20 13:46:53;;;;;;;0.60;0.43;;;;;;;;;;5422204;26;20328;-81
2024/04/20 13:49:19;;;;;;;1.45;0.60;;;;;;;;;;5427128;26;20327;-80
2024/04/20 13:51:45;;;;;;;0.95;0.40;;;;;;;;;;5425777;26;20328;-80
2024/04/20 13:54:11;;;;;;;1.13;0.50;;;;;;;;;;5424109;26;20355;-80
2024/04/20 13:56:37;;;;;;;0.70;0.50;;;;;;;;;;5425778;26;20335;-80
2024/04/20 13:59:03;;;;;;;2.45;0.70;;;;;;;;;;5424604;26;20372;-80
2024/04/20 14:01:30;;;;;;;3.00;0.70;;;;;;;;;;5422636;26;20848;-81
2024/04/20 14:03:56;;;;;;;1.23;0.50;;;;;;;;;;5421763;26;20332;-81
2024/04/20 14:06:22;;;;;;;0.77;0.50;;;;;;;;;;5421881;26;20432;-80
2024/04/20 14:08:48;;;;;;;1.38;0.80;;;;;;;;;;5422414;26;20331;-81
2024/04/20 14:11:16;;;;;;;1.55;0.90;;;;;;;;;;5422609;26;20323;-82
2024/04/20 14:13:42;;;;;;;4.00;2.83;;;;;;;;;;5421645;26;20445;-83
2024/04/20 14:16:08;;;;;;;5.07;3.50;;;;;;;;;;5423154;26;20327;-81
2024/04/20 14:18:34;;;;;;;2.97;2.10;;;;;;;;;;5423156;26;20831;-82
2024/04/20 14:21:06;;;;;;;4.90;4.40;;;;;;;;;;5422783;26;20335;-81
2024/04/20 14:23:33;;;;;;;1.35;1.08;;;;;;;;;;5423115;26;20370;-82
2024/04/20 14:26:00;;;;;;;1.27;0.90;;;;;;;;;;5393804;26;20328;-83
2024/04/20 14:28:27;;;;;;;0.95;0.77;;;;;;;;;;5425214;26;20343;-81
2024/04/20 14:30:59;;;;;;;1.40;0.80;;;;;;;;;;5423861;26;20383;-81
2024/04/20 14:33:25;;;;;;;3.30;0.80;;;;;;;;;;5422930;26;20673;-82
2024/04/20 14:35:51;;;;;;;0.82;0.60;;;;;;;;;;5423011;26;20339;-82
2024/04/20 14:38:17;;;;;;;0.80;0.63;;;;;;;;;;5421961;26;20447;-82
2024/04/20 14:40:53;;;;;;;2.00;1.00;;;;;;;;;;5422327;26;20331;-82
2024/04/20 14:43:23;;;;;;;1.33;0.80;;;;;;;;;;5422056;26;20328;-82